createdAt,value
2019-04-04T00:00:59.537Z,47.97
2019-04-04T00:06:03.276Z,48.40
2019-04-04T00:11:06.969Z,47.40
2019-04-04T00:16:16.089Z,47.83
2019-04-04T00:21:22.854Z,48.30
2019-04-04T00:26:26.457Z,48.33
2019-04-04T00:31:30.211Z,47.83
2019-04-04T00:36:34.681Z,48.27
2019-04-04T00:41:38.548Z,48.43
2019-04-04T00:46:42.269Z,48.70
2019-04-04T00:51:46.012Z,48.17
2019-04-04T00:56:49.751Z,48.63
2019-04-04T01:01:56.685Z,47.77
2019-04-04T01:06:58.955Z,48.03
2019-04-04T01:12:02.666Z,48.40
2019-04-04T01:17:06.408Z,48.17
2019-04-04T01:22:10.131Z,47.90
2019-04-04T01:27:15.515Z,49.97
2019-04-04T01:32:19.280Z,51.27
2019-04-04T01:37:23.020Z,47.80
2019-04-04T01:42:26.615Z,47.67
2019-04-04T01:47:30.255Z,46.40
2019-04-04T01:52:33.902Z,47.40
2019-04-04T01:57:38.918Z,47.83
2019-04-04T02:02:42.912Z,44.90
2019-04-04T02:07:48.100Z,46.93
2019-04-04T02:13:03.849Z,47.33
2019-04-04T02:18:07.560Z,45.50
2019-04-04T02:23:11.226Z,47.10
2019-04-04T02:28:14.814Z,46.63
2019-04-04T02:33:21.107Z,47.50
2019-04-04T02:38:42.624Z,47.57
2019-04-04T02:43:46.215Z,47.53
2019-04-04T02:48:56.272Z,47.10
2019-04-04T02:54:02.084Z,45.30
2019-04-04T02:59:05.801Z,46.30
2019-04-04T03:04:13.598Z,47.37
2019-04-04T03:09:23.775Z,47.80
2019-04-04T03:14:27.347Z,47.03
2019-04-04T03:19:30.967Z,46.53
2019-04-04T03:24:40.287Z,46.43
2019-04-04T03:29:48.774Z,47.53
2019-04-04T03:34:52.481Z,47.50
2019-04-04T03:39:56.045Z,46.97
2019-04-04T03:44:59.660Z,47.60
2019-04-04T03:50:04.175Z,46.63
2019-04-04T03:55:07.985Z,46.63
2019-04-04T04:00:14.630Z,47.13
2019-04-04T04:05:40.640Z,47.27
2019-04-04T04:10:51.200Z,46.70
2019-04-04T04:15:54.788Z,46.23
2019-04-04T04:20:58.393Z,46.73
2019-04-04T04:26:01.998Z,47.00
2019-04-04T04:31:08.689Z,47.43
2019-04-04T04:36:17.754Z,46.88
2019-04-04T04:41:21.475Z,44.67
2019-04-04T04:46:25.137Z,46.83
2019-04-04T04:51:28.720Z,49.60
2019-04-04T04:56:32.302Z,46.23
2019-04-04T05:01:35.883Z,46.83
2019-04-04T05:06:39.465Z,47.83
2019-04-04T05:11:43.203Z,46.97
2019-04-04T05:16:46.795Z,47.47
2019-04-04T05:21:50.355Z,49.33
2019-04-04T05:26:53.972Z,50.57
2019-04-04T05:32:00.661Z,49.67
2019-04-04T05:37:05.134Z,48.60
2019-04-04T05:42:09.631Z,49.95
2019-04-04T05:47:13.217Z,49.25
2019-04-04T05:52:16.811Z,48.98
2019-04-04T05:57:20.792Z,49.95
2019-04-04T06:02:24.444Z,48.20
2019-04-04T06:07:30.804Z,49.53
2019-04-04T06:12:58.059Z,48.68
2019-04-04T06:18:01.632Z,49.05
2019-04-04T06:23:14.205Z,49.10
2019-04-04T06:28:19.506Z,49.67
2019-04-04T06:33:23.117Z,48.85
2019-04-04T06:38:26.672Z,50.33
2019-04-04T06:43:33.106Z,49.80
2019-04-04T06:48:36.703Z,50.00
2019-04-04T06:53:40.289Z,49.08
2019-04-04T06:58:43.966Z,50.78
2019-04-04T07:03:47.533Z,49.93
2019-04-04T07:08:51.140Z,49.48
2019-04-04T07:13:54.791Z,49.65
2019-04-04T07:18:58.448Z,49.80
2019-04-04T07:24:02.155Z,48.58
2019-04-04T07:29:11.608Z,49.48
2019-04-04T07:34:16.076Z,53.40
2019-04-04T07:39:19.672Z,49.75
2019-04-04T07:44:23.907Z,49.52
2019-04-04T07:49:27.610Z,49.08
2019-04-04T07:54:32.087Z,48.90
2019-04-04T07:59:35.845Z,49.00
2019-04-04T08:04:39.395Z,48.95
2019-04-04T08:09:42.996Z,49.33
2019-04-04T08:14:46.672Z,48.58
2019-04-04T08:19:59.703Z,48.50
2019-04-04T08:24:55.544Z,49.05
2019-04-04T08:29:59.145Z,48.33
2019-04-04T08:35:02.789Z,49.45
2019-04-04T08:40:07.683Z,49.15
2019-04-04T08:45:11.393Z,49.98
2019-04-04T08:50:15.867Z,49.35
2019-04-04T08:55:19.442Z,49.80
2019-04-04T09:00:23.585Z,50.78
2019-04-04T09:05:27.164Z,50.17
2019-04-04T09:10:30.820Z,50.60
2019-04-04T09:15:34.465Z,49.35
2019-04-04T09:20:38.221Z,49.65
2019-04-04T09:25:41.786Z,49.77
2019-04-04T09:30:46.385Z,50.28
2019-04-04T09:35:49.960Z,51.08
2019-04-04T09:40:54.609Z,50.50
2019-04-04T09:45:58.273Z,50.48
2019-04-04T09:51:01.895Z,50.23
2019-04-04T09:56:05.608Z,50.60
2019-04-04T10:01:09.329Z,50.50
2019-04-04T10:06:12.907Z,50.17
2019-04-04T10:11:16.488Z,50.78
2019-04-04T10:16:20.102Z,50.45
2019-04-04T10:21:23.711Z,50.43
2019-04-04T10:26:27.355Z,50.63
2019-04-04T10:31:31.048Z,50.48
2019-04-04T10:36:34.687Z,51.05
2019-04-04T10:41:38.274Z,51.28
2019-04-04T10:46:41.896Z,50.85
2019-04-04T10:51:45.595Z,50.58
2019-04-04T10:56:49.178Z,50.63
2019-04-04T11:01:52.840Z,51.30
2019-04-04T11:06:56.413Z,51.28
2019-04-04T11:12:00.062Z,51.10
2019-04-04T11:17:03.734Z,51.25
2019-04-04T11:22:07.364Z,51.60
2019-04-04T11:27:10.961Z,52.13
2019-04-04T11:32:14.657Z,51.60
2019-04-04T11:37:18.349Z,52.33
2019-04-04T11:42:22.049Z,50.40
2019-04-04T11:47:25.728Z,50.98
2019-04-04T11:52:29.835Z,50.88
2019-04-04T11:57:33.506Z,51.15
2019-04-04T12:02:37.071Z,51.68
2019-04-04T12:07:40.745Z,50.33
2019-04-04T12:12:44.375Z,50.85
2019-04-04T12:17:47.958Z,51.55
2019-04-04T12:22:51.651Z,51.15
2019-04-04T12:27:55.253Z,51.30
2019-04-04T12:32:58.871Z,50.88
2019-04-04T12:38:02.474Z,50.80
2019-04-04T12:43:06.148Z,51.73
2019-04-04T12:48:09.939Z,50.92
2019-04-04T12:53:13.552Z,50.80
2019-04-04T12:58:17.236Z,49.65
2019-04-04T13:03:22.466Z,50.58
2019-04-04T13:08:26.181Z,51.40
2019-04-04T13:13:29.783Z,50.40
2019-04-04T13:18:33.396Z,51.98
2019-04-04T13:23:37.035Z,51.70
2019-04-04T13:28:40.699Z,51.10
2019-04-04T13:33:44.306Z,51.98
2019-04-04T13:38:47.909Z,52.55
2019-04-04T13:43:53.423Z,51.33
2019-04-04T13:48:56.783Z,51.53
2019-04-04T13:54:00.427Z,51.58
2019-04-04T13:59:05.915Z,51.70
2019-04-04T14:04:09.713Z,51.63
2019-04-04T14:09:13.307Z,51.15
2019-04-04T14:14:16.984Z,51.00
2019-04-04T14:19:20.592Z,51.25
2019-04-04T14:24:24.175Z,51.30
2019-04-04T14:29:28.159Z,50.40
2019-04-04T14:34:31.771Z,51.53
2019-04-04T14:39:35.363Z,50.35
2019-04-04T14:44:39.000Z,49.77
2019-04-04T14:49:45.028Z,50.70
2019-04-04T14:54:47.858Z,50.88
2019-04-04T14:59:51.546Z,51.23
2019-04-04T15:04:55.183Z,50.52
2019-04-04T15:09:58.756Z,51.15
2019-04-04T15:15:02.646Z,50.75
2019-04-04T15:20:07.293Z,51.26
2019-04-04T15:25:11.123Z,51.73
2019-04-04T15:30:15.125Z,50.70
2019-04-04T15:35:18.819Z,50.65
2019-04-04T15:40:22.456Z,51.08
2019-04-04T15:45:26.138Z,52.25
2019-04-04T15:50:29.738Z,51.33
2019-04-04T15:55:33.317Z,51.80
2019-04-04T16:00:37.476Z,51.85
2019-04-04T16:05:41.081Z,50.43
2019-04-04T16:10:44.855Z,51.50
2019-04-04T16:15:48.407Z,53.17
2019-04-04T16:20:52.156Z,51.40
2019-04-04T16:25:55.847Z,51.90
2019-04-04T16:31:00.272Z,54.60
2019-04-04T16:36:05.441Z,52.05
2019-04-04T16:41:09.473Z,53.03
2019-04-04T16:46:13.084Z,52.83
2019-04-04T16:51:16.725Z,53.17
2019-04-04T16:56:20.382Z,52.00
2019-04-04T17:01:24.060Z,52.20
2019-04-04T17:06:27.745Z,53.10
2019-04-04T17:11:31.343Z,54.10
2019-04-04T17:16:35.084Z,52.13
2019-04-04T17:21:38.841Z,53.05
2019-04-04T17:26:42.655Z,53.80
2019-04-04T17:31:46.825Z,52.17
2019-04-04T17:36:50.660Z,51.65
2019-04-04T17:41:54.320Z,52.73
2019-04-04T17:46:58.006Z,52.33
2019-04-04T17:52:01.985Z,52.90
2019-04-04T17:57:05.755Z,52.30
2019-04-04T18:02:09.675Z,51.77
2019-04-04T18:07:13.353Z,52.00
2019-04-04T18:12:17.100Z,52.05
2019-04-04T18:17:20.847Z,51.60
2019-04-04T18:22:24.562Z,50.88
2019-04-04T18:27:28.276Z,52.67
2019-04-04T18:32:31.933Z,50.95
2019-04-04T18:37:35.673Z,51.35
2019-04-04T18:42:51.906Z,52.53
2019-04-04T18:47:44.772Z,52.80
2019-04-04T18:52:48.538Z,52.65
2019-04-04T18:57:52.252Z,51.30
2019-04-04T19:02:56.012Z,52.08
2019-04-04T19:07:59.895Z,51.83
2019-04-04T19:13:05.700Z,51.73
2019-04-04T19:18:09.209Z,52.83
2019-04-04T19:23:12.928Z,52.33
2019-04-04T19:28:16.695Z,51.50
2019-04-04T19:33:20.604Z,52.15
2019-04-04T19:38:24.249Z,51.63
2019-04-04T19:43:28.083Z,54.58
2019-04-04T19:48:31.802Z,51.18
2019-04-04T19:53:35.546Z,51.60
2019-04-04T19:58:39.265Z,51.90
2019-04-04T20:03:42.883Z,51.70
2019-04-04T20:08:46.490Z,51.20
2019-04-04T20:13:50.160Z,50.57
2019-04-04T20:18:53.770Z,50.37
2019-04-04T20:23:57.359Z,51.07
2019-04-04T20:29:01.725Z,49.80
2019-04-04T20:34:06.189Z,51.53
2019-04-04T20:39:10.051Z,51.47
2019-04-04T20:44:13.641Z,50.93
2019-04-04T20:49:17.364Z,52.13
2019-04-04T20:54:21.036Z,51.50
2019-04-04T20:59:28.211Z,50.40
2019-04-04T21:04:31.940Z,51.10
2019-04-04T21:09:36.394Z,50.80
2019-04-04T21:14:39.973Z,49.63
2019-04-04T21:19:43.800Z,51.37
2019-04-04T21:24:47.488Z,50.47
2019-04-04T21:29:51.195Z,49.80
2019-04-04T21:34:55.011Z,49.73
2019-04-04T21:39:59.214Z,49.70
2019-04-04T21:45:02.909Z,50.00
2019-04-04T21:50:07.368Z,49.87
2019-04-04T21:55:11.091Z,50.23
2019-04-04T22:00:15.416Z,49.67
2019-04-04T22:05:19.064Z,48.70
2019-04-04T22:10:22.660Z,49.13
2019-04-04T22:15:26.339Z,48.97
2019-04-04T22:20:29.892Z,49.05
2019-04-04T22:25:33.667Z,49.37
2019-04-04T22:30:37.395Z,48.25
2019-04-04T22:35:41.048Z,49.03
2019-04-04T22:40:45.588Z,48.87
2019-04-04T22:45:49.147Z,48.93
2019-04-04T22:50:52.960Z,48.35
2019-04-04T22:55:56.600Z,49.20
2019-04-04T23:01:00.385Z,49.50
2019-04-04T23:06:04.030Z,48.97
2019-04-04T23:11:07.782Z,49.23
2019-04-04T23:16:16.080Z,48.20
2019-04-04T23:21:19.657Z,48.56
2019-04-04T23:26:23.307Z,48.47
2019-04-04T23:31:26.963Z,48.47
2019-04-04T23:36:35.215Z,48.47
2019-04-04T23:41:35.890Z,48.53
2019-04-04T23:46:39.458Z,49.20
2019-04-04T23:51:43.053Z,49.50
2019-04-04T23:56:46.713Z,48.73
